Time;durP1;ratioP1;P1;durP2;ratioP2;P2;SDS_P1;SDS_P2;PMS_P1;PMS_P2;Temp;Humidity;BMP_temperature;BMP_pressure;BME280_temperature;BME280_humidity;BME280_pressure;Samples;Min_cycle;Max_cycle;Signal;HPM_P1;HPM_P2
2022/12/26 00:00:24;;;;;;;;;4.75;4.25;;;;;;;;5097769;27;45500;-68
2022/12/26 00:02:49;;;;;;;;;4.00;2.00;;;;;;;;5077773;27;45518;-68
2022/12/26 00:05:14;;;;;;;;;5.50;5.50;;;;;;;;5094961;27;46482;-67
2022/12/26 00:07:39;;;;;;;;;6.00;5.00;;;;;;;;5096819;27;45208;-68
2022/12/26 00:10:05;;;;;;;;;3.50;3.50;;;;;;;;5095467;27;45299;-67
2022/12/26 00:12:30;;;;;;;;;5.00;5.00;;;;;;;;5095757;27;45346;-67
2022/12/26 00:14:55;;;;;;;;;5.00;4.00;;;;;;;;5095321;27;45464;-67
2022/12/26 00:17:21;;;;;;;;;4.75;4.75;;;;;;;;5097008;27;45821;-67
2022/12/26 00:19:46;;;;;;;;;4.50;4.00;;;;;;;;5096042;27;45395;-67
2022/12/26 00:22:11;;;;;;;;;3.00;3.00;;;;;;;;5095661;27;45629;-68
2022/12/26 00:24:36;;;;;;;;;3.00;3.00;;;;;;;;5092086;27;49092;-66
2022/12/26 00:27:01;;;;;;;;;5.75;3.00;;;;;;;;5092506;27;45531;-66
2022/12/26 00:29:27;;;;;;;;;5.25;3.00;;;;;;;;5100961;27;45456;-65
2022/12/26 00:31:52;;;;;;;;;3.25;2.75;;;;;;;;5100109;27;45508;-70
2022/12/26 00:34:17;;;;;;;;;3.25;3.25;;;;;;;;5089650;27;46171;-66
2022/12/26 00:36:42;;;;;;;;;2.50;2.25;;;;;;;;5095189;27;45406;-66
2022/12/26 00:39:11;;;;;;;;;3.00;2.00;;;;;;;;5095745;27;45536;-66
2022/12/26 00:41:36;;;;;;;;;3.50;3.50;;;;;;;;5107283;27;45412;-66
2022/12/26 00:44:02;;;;;;;;;3.00;2.00;;;;;;;;5098498;27;45543;-66
2022/12/26 00:46:27;;;;;;;;;2.75;2.75;;;;;;;;5096129;27;45801;-66
2022/12/26 00:48:53;;;;;;;;;4.00;4.00;;;;;;;;5089270;27;45227;-66
2022/12/26 00:51:18;;;;;;;;;3.00;3.00;;;;;;;;5093718;27;45530;-66
2022/12/26 00:53:43;;;;;;;;;2.75;2.75;;;;;;;;5096520;27;46490;-67
2022/12/26 00:56:08;;;;;;;;;4.00;3.00;;;;;;;;5096515;27;45306;-67
2022/12/26 00:58:33;;;;;;;;;4.00;4.00;;;;;;;;5095331;27;46605;-67
2022/12/26 01:01:06;;;;;;;;;4.00;4.00;;;;;;;;5095995;27;45421;-67
2022/12/26 01:03:31;;;;;;;;;4.75;4.00;;;;;;;;5096520;27;47123;-66
2022/12/26 01:05:56;;;;;;;;;3.25;3.00;;;;;;;;5090126;27;45322;-66
2022/12/26 01:08:21;;;;;;;;;5.00;4.00;;;;;;;;5098474;27;45200;-67
2022/12/26 01:10:47;;;;;;;;;3.25;3.25;;;;;;;;5099348;27;45410;-67
2022/12/26 01:13:12;;;;;;;;;4.50;4.50;;;;;;;;5097557;27;45304;-67
2022/12/26 01:15:38;;;;;;;;;3.75;3.75;;;;;;;;5100058;27;45445;-67
2022/12/26 01:18:03;;;;;;;;;4.50;3.50;;;;;;;;5099774;27;45434;-67
2022/12/26 01:20:28;;;;;;;;;4.00;4.00;;;;;;;;5100370;27;45265;-67
2022/12/26 01:22:54;;;;;;;;;7.00;7.00;;;;;;;;5098463;27;45675;-67
2022/12/26 01:25:19;;;;;;;;;4.00;3.00;;;;;;;;5098524;27;45212;-67
2022/12/26 01:27:44;;;;;;;;;5.50;4.50;;;;;;;;5100234;27;45287;-67
2022/12/26 01:30:10;;;;;;;;;3.50;3.50;;;;;;;;5099991;27;45425;-67
2022/12/26 01:32:35;;;;;;;;;5.00;5.00;;;;;;;;5098743;27;47643;-67
2022/12/26 01:35:00;;;;;;;;;7.75;5.00;;;;;;;;5098823;27;45606;-66
2022/12/26 01:37:26;;;;;;;;;7.50;4.75;;;;;;;;5099614;27;45411;-66
2022/12/26 01:39:51;;;;;;;;;14.75;10.75;;;;;;;;5100011;27;45438;-67
2022/12/26 01:42:17;;;;;;;;;7.00;7.00;;;;;;;;5099402;27;46338;-66
2022/12/26 01:45:01;;;;;;;;;5.00;5.00;;;;;;;;5098606;27;45296;-66
2022/12/26 01:47:45;;;;;;;;;6.00;4.25;;;;;;;;5099190;27;45389;-66
2022/12/26 01:50:16;;;;;;;;;9.75;4.75;;;;;;;;5099983;27;45386;-68
2022/12/26 01:52:44;;;;;;;;;3.50;3.50;;;;;;;;5099426;27;46723;-68
2022/12/26 01:55:11;;;;;;;;;3.50;3.50;;;;;;;;5099513;27;45412;-68
2022/12/26 01:57:39;;;;;;;;;6.00;6.00;;;;;;;;5098878;27;45398;-68
2022/12/26 02:00:05;;;;;;;;;4.25;4.00;;;;;;;;5099496;27;45484;-69
2022/12/26 02:05:32;;;;;;;;;5.25;4.00;;;;;;;;5098652;27;46324;-68
2022/12/26 02:05:34;;;;;;;;;4.00;4.00;;;;;;;;5097621;27;45362;-68
2022/12/26 02:08:07;;;;;;;;;8.50;5.00;;;;;;;;5078985;28;45449;-68
2022/12/26 02:10:41;;;;;;;;;3.00;2.00;;;;;;;;5080364;27;45538;-69
2022/12/26 02:13:06;;;;;;;;;6.00;4.00;;;;;;;;5099083;27;46647;-68
2022/12/26 02:15:32;;;;;;;;;4.25;4.25;;;;;;;;5098223;27;45213;-68
2022/12/26 02:17:57;;;;;;;;;5.25;4.00;;;;;;;;5098212;27;45383;-68
2022/12/26 02:20:22;;;;;;;;;4.00;4.00;;;;;;;;5097728;27;46798;-68
2022/12/26 02:22:50;;;;;;;;;4.00;4.00;;;;;;;;5099057;27;46384;-68
2022/12/26 02:25:24;;;;;;;;;4.00;4.00;;;;;;;;5098901;27;45473;-69
2022/12/26 02:28:01;;;;;;;;;3.25;3.25;;;;;;;;5099123;27;45406;-68
2022/12/26 02:30:44;;;;;;;;;6.50;4.50;;;;;;;;5096001;27;45470;-68
2022/12/26 02:33:28;;;;;;;;;3.00;3.00;;;;;;;;5078148;27;45295;-68
2022/12/26 02:36:12;;;;;;;;;5.00;5.00;;;;;;;;5094248;27;46468;-68
2022/12/26 02:38:45;;;;;;;;;4.75;4.75;;;;;;;;5078700;28;45404;-68
2022/12/26 02:41:16;;;;;;;;;3.25;3.25;;;;;;;;5078603;27;45451;-68
2022/12/26 02:47:01;;;;;;;;;6.50;5.00;;;;;;;;5078004;28;46827;-69
2022/12/26 02:47:03;;;;;;;;;4.25;4.25;;;;;;;;5075061;28;45531;-69
2022/12/26 03:15:06;;;;;;;;;3.00;3.00;;;;;;;;5098537;27;45399;-70
2022/12/26 03:18:10;;;;;;;;;4.00;4.00;;;;;;;;5097902;27;45777;-70
2022/12/26 03:20:35;;;;;;;;;5.00;5.00;;;;;;;;5033511;28;45476;-69
2022/12/26 03:23:10;;;;;;;;;5.50;4.25;;;;;;;;5017312;28;45448;-69
2022/12/26 03:28:24;;;;;;;;;3.75;3.75;;;;;;;;5033856;28;45580;-70
2022/12/26 03:30:50;;;;;;;;;5.50;3.00;;;;;;;;5034249;28;45433;-70
2022/12/26 03:36:10;;;;;;;;;7.00;5.00;;;;;;;;5035220;28;45534;-69
2022/12/26 03:38:38;;;;;;;;;5.50;4.25;;;;;;;;5033947;28;46966;-69
2022/12/26 04:20:42;;;;;;;;;4.00;4.00;;;;;;;;5088359;27;45542;-68
2022/12/26 04:45:53;;;;;;;;;4.50;4.50;;;;;;;;5100444;27;45891;-68
2022/12/26 04:51:02;;;;;;;;;5.25;3.75;;;;;;;;5099784;27;45388;-68
2022/12/26 04:53:27;;;;;;;;;3.50;3.50;;;;;;;;5100818;27;45184;-69
2022/12/26 04:55:53;;;;;;;;;4.00;4.00;;;;;;;;5100494;27;46463;-68
2022/12/26 04:58:18;;;;;;;;;4.00;4.00;;;;;;;;5100289;27;45280;-68
2022/12/26 05:00:43;;;;;;;;;4.25;4.25;;;;;;;;5099889;27;45401;-68
2022/12/26 05:11:29;;;;;;;;;3.75;3.00;;;;;;;;5098485;27;45469;-68
2022/12/26 05:13:55;;;;;;;;;3.00;3.00;;;;;;;;5100603;27;45428;-68
2022/12/26 05:30:04;;;;;;;;;3.00;3.00;;;;;;;;5079388;28;45386;-68
2022/12/26 05:35:12;;;;;;;;;5.25;2.00;;;;;;;;5079842;28;45370;-68
2022/12/26 05:37:38;;;;;;;;;2.00;2.00;;;;;;;;5079243;28;45444;-69
2022/12/26 05:40:03;;;;;;;;;4.00;2.25;;;;;;;;5093324;27;45501;-69
2022/12/26 05:42:28;;;;;;;;;3.00;3.00;;;;;;;;5097977;27;45426;-69
2022/12/26 05:44:53;;;;;;;;;4.00;4.00;;;;;;;;5099946;27;45370;-69
2022/12/26 05:47:19;;;;;;;;;6.00;6.00;;;;;;;;5099771;27;45468;-69
2022/12/26 05:49:44;;;;;;;;;5.00;3.00;;;;;;;;5098944;27;45396;-69
2022/12/26 05:52:09;;;;;;;;;5.00;5.00;;;;;;;;5098564;27;45356;-69
2022/12/26 05:54:34;;;;;;;;;5.50;2.50;;;;;;;;5099944;27;45431;-68
2022/12/26 05:57:00;;;;;;;;;2.00;2.00;;;;;;;;5098606;27;45353;-69
2022/12/26 05:59:25;;;;;;;;;4.00;2.00;;;;;;;;5098352;27;45455;-68
2022/12/26 06:01:51;;;;;;;;;2.75;2.75;;;;;;;;5099432;27;45321;-69
2022/12/26 06:04:16;;;;;;;;;2.25;2.25;;;;;;;;5098842;27;45391;-69
2022/12/26 06:06:41;;;;;;;;;1.75;1.75;;;;;;;;5099369;27;45653;-68
2022/12/26 06:09:06;;;;;;;;;2.00;2.00;;;;;;;;5099323;27;45366;-69
2022/12/26 06:11:31;;;;;;;;;2.25;2.00;;;;;;;;5098201;27;46629;-69
2022/12/26 06:13:57;;;;;;;;;4.50;1.25;;;;;;;;5098641;27;45470;-69
2022/12/26 06:16:23;;;;;;;;;1.00;1.00;;;;;;;;5097921;27;46211;-68
2022/12/26 06:18:48;;;;;;;;;1.25;1.25;;;;;;;;5098807;27;45405;-69
2022/12/26 06:21:15;;;;;;;;;0.00;0.00;;;;;;;;5098702;27;45350;-68
2022/12/26 06:23:40;;;;;;;;;1.25;1.25;;;;;;;;5098418;27;45495;-68
2022/12/26 06:26:07;;;;;;;;;3.25;2.00;;;;;;;;5114883;27;45660;-68
2022/12/26 06:28:33;;;;;;;;;1.00;0.50;;;;;;;;5098076;27;45425;-69
2022/12/26 06:31:02;;;;;;;;;2.00;1.00;;;;;;;;5098557;27;46341;-68
2022/12/26 06:33:28;;;;;;;;;2.00;2.00;;;;;;;;5097675;27;45477;-69
2022/12/26 06:35:53;;;;;;;;;1.00;1.00;;;;;;;;5098096;27;45631;-68
2022/12/26 06:38:18;;;;;;;;;0.25;0.25;;;;;;;;5098846;27;45294;-68
2022/12/26 06:40:43;;;;;;;;;4.00;3.00;;;;;;;;5098944;27;45546;-69
2022/12/26 06:43:09;;;;;;;;;3.00;1.00;;;;;;;;5098279;27;45332;-69
2022/12/26 06:45:34;;;;;;;;;1.25;1.25;;;;;;;;5098558;27;46491;-69
2022/12/26 06:48:00;;;;;;;;;5.00;5.00;;;;;;;;5098016;27;45891;-68
2022/12/26 06:50:25;;;;;;;;;1.50;1.00;;;;;;;;5097796;27;45417;-69
2022/12/26 06:52:50;;;;;;;;;3.50;1.50;;;;;;;;5098965;27;45371;-69
2022/12/26 06:55:15;;;;;;;;;1.50;1.25;;;;;;;;5098463;27;45409;-69
2022/12/26 06:57:41;;;;;;;;;2.75;1.50;;;;;;;;5097658;27;45277;-69
2022/12/26 07:00:06;;;;;;;;;2.00;2.00;;;;;;;;5097149;27;45380;-68
2022/12/26 07:02:31;;;;;;;;;2.00;2.00;;;;;;;;5098384;27;45332;-68
2022/12/26 07:04:57;;;;;;;;;1.75;1.75;;;;;;;;5096955;27;46462;-68
2022/12/26 07:07:22;;;;;;;;;3.00;1.00;;;;;;;;5097610;27;45371;-68
2022/12/26 07:09:47;;;;;;;;;2.00;2.00;;;;;;;;5098660;27;45162;-68
2022/12/26 07:12:12;;;;;;;;;1.00;1.00;;;;;;;;5098572;27;45300;-69
2022/12/26 07:14:38;;;;;;;;;4.50;4.50;;;;;;;;5097535;27;46354;-68
2022/12/26 07:17:03;;;;;;;;;4.00;4.00;;;;;;;;5097469;27;45412;-69
2022/12/26 07:19:28;;;;;;;;;2.00;1.00;;;;;;;;5098250;27;45192;-68
2022/12/26 07:21:53;;;;;;;;;1.75;1.75;;;;;;;;5096906;27;45525;-68
2022/12/26 07:24:19;;;;;;;;;1.75;1.75;;;;;;;;5097956;27;45562;-68
2022/12/26 07:26:45;;;;;;;;;3.60;1.00;;;;;;;;5098210;27;45396;-68
2022/12/26 07:29:11;;;;;;;;;4.00;1.75;;;;;;;;5098332;27;45374;-68
2022/12/26 07:31:36;;;;;;;;;3.25;2.00;;;;;;;;5096367;27;45410;-68
2022/12/26 07:34:01;;;;;;;;;1.25;1.25;;;;;;;;5097899;27;46012;-68
2022/12/26 07:36:26;;;;;;;;;2.00;2.00;;;;;;;;5097911;27;45344;-68
2022/12/26 07:38:52;;;;;;;;;4.50;3.00;;;;;;;;5097884;27;45372;-68
2022/12/26 07:44:00;;;;;;;;;1.00;1.00;;;;;;;;5097329;27;45545;-68
2022/12/26 07:46:26;;;;;;;;;2.75;1.50;;;;;;;;5097711;27;45468;-68
2022/12/26 07:48:51;;;;;;;;;3.75;2.50;;;;;;;;5096848;27;45396;-68
2022/12/26 07:51:16;;;;;;;;;3.75;2.25;;;;;;;;5097534;27;45287;-68
2022/12/26 07:53:41;;;;;;;;;4.50;2.00;;;;;;;;5097608;27;45507;-68
2022/12/26 07:56:07;;;;;;;;;2.00;2.00;;;;;;;;5097162;27;45413;-68
2022/12/26 07:58:32;;;;;;;;;2.00;2.00;;;;;;;;5097664;27;45358;-68
2022/12/26 08:01:01;;;;;;;;;19.33;15.67;;;;;;;;5096736;27;45424;-68
2022/12/26 08:03:26;;;;;;;;;4.75;2.00;;;;;;;;5095332;27;45528;-68
2022/12/26 08:05:51;;;;;;;;;3.00;2.00;;;;;;;;5095745;27;45516;-68
2022/12/26 08:08:17;;;;;;;;;4.50;4.50;;;;;;;;5097717;27;45373;-68
2022/12/26 08:10:42;;;;;;;;;1.75;1.50;;;;;;;;5097213;27;45516;-68
2022/12/26 08:13:07;;;;;;;;;2.00;1.00;;;;;;;;5097264;27;45562;-68
2022/12/26 08:15:33;;;;;;;;;3.00;1.25;;;;;;;;5098445;27;45508;-68
2022/12/26 08:17:58;;;;;;;;;3.00;3.00;;;;;;;;5101321;27;45391;-68
2022/12/26 08:20:23;;;;;;;;;2.25;2.25;;;;;;;;5100264;27;45347;-68
2022/12/26 08:22:48;;;;;;;;;2.75;2.00;;;;;;;;5100817;27;45377;-68
2022/12/26 08:25:13;;;;;;;;;4.00;2.00;;;;;;;;5100094;27;45427;-68
2022/12/26 08:27:39;;;;;;;;;2.00;2.00;;;;;;;;5101217;27;45223;-68
2022/12/26 08:30:04;;;;;;;;;2.00;2.00;;;;;;;;5099956;27;45526;-69
2022/12/26 08:32:29;;;;;;;;;3.00;2.75;;;;;;;;5100893;27;46468;-68
2022/12/26 08:34:55;;;;;;;;;3.75;2.50;;;;;;;;5100844;27;45414;-69
2022/12/26 08:37:22;;;;;;;;;7.25;5.50;;;;;;;;5099275;27;46020;-68
2022/12/26 08:39:48;;;;;;;;;3.00;2.00;;;;;;;;5101093;27;45444;-67
2022/12/26 08:42:13;;;;;;;;;12.00;12.00;;;;;;;;5100642;27;46240;-68
2022/12/26 08:44:38;;;;;;;;;1.00;1.00;;;;;;;;5100479;27;45323;-69
2022/12/26 08:47:03;;;;;;;;;2.00;2.00;;;;;;;;5099643;27;45240;-69
2022/12/26 08:49:28;;;;;;;;;2.50;2.00;;;;;;;;5100466;27;45345;-69
2022/12/26 08:51:54;;;;;;;;;5.00;2.00;;;;;;;;5099109;27;45461;-69
2022/12/26 08:54:19;;;;;;;;;2.75;2.75;;;;;;;;5100002;27;45874;-69
2022/12/26 08:56:44;;;;;;;;;2.00;2.00;;;;;;;;5100594;27;45386;-69
2022/12/26 08:59:09;;;;;;;;;4.25;2.00;;;;;;;;5100385;27;45399;-69
2022/12/26 09:01:34;;;;;;;;;4.25;3.00;;;;;;;;5098733;27;47019;-69
2022/12/26 09:04:02;;;;;;;;;2.25;2.25;;;;;;;;5099988;27;45923;-69
2022/12/26 09:06:27;;;;;;;;;2.00;2.00;;;;;;;;5099201;27;45525;-69
2022/12/26 09:08:53;;;;;;;;;2.25;2.25;;;;;;;;5100036;27;45288;-68
2022/12/26 09:11:20;;;;;;;;;2.00;2.00;;;;;;;;5100127;27;46395;-69
2022/12/26 09:13:46;;;;;;;;;2.75;2.75;;;;;;;;5099439;27;45518;-69
2022/12/26 09:16:15;;;;;;;;;1.50;1.50;;;;;;;;5100304;27;45382;-68
2022/12/26 09:18:41;;;;;;;;;4.25;3.25;;;;;;;;5100447;27;45215;-69
2022/12/26 09:21:07;;;;;;;;;2.75;2.00;;;;;;;;5099714;27;46032;-68
2022/12/26 09:23:34;;;;;;;;;2.00;2.00;;;;;;;;5098604;27;45397;-67
2022/12/26 09:26:18;;;;;;;;;6.00;6.00;;;;;;;;5099794;27;45377;-67
2022/12/26 09:28:44;;;;;;;;;3.75;2.00;;;;;;;;5099436;27;45445;-68
2022/12/26 09:31:11;;;;;;;;;3.25;3.25;;;;;;;;5099888;27;46226;-68
2022/12/26 09:33:37;;;;;;;;;5.00;3.75;;;;;;;;5099734;27;45496;-67
2022/12/26 09:36:06;;;;;;;;;2.50;1.00;;;;;;;;5099245;27;45413;-67
2022/12/26 09:38:31;;;;;;;;;2.75;2.75;;;;;;;;5099975;27;45585;-67
2022/12/26 09:41:07;;;;;;;;;3.00;2.25;;;;;;;;5098558;27;47639;-67
2022/12/26 09:43:35;;;;;;;;;4.50;4.50;;;;;;;;5099173;27;45283;-67
2022/12/26 09:46:06;;;;;;;;;5.25;2.00;;;;;;;;5099597;27;45402;-67
2022/12/26 09:48:38;;;;;;;;;5.75;3.00;;;;;;;;5099886;27;45425;-67
2022/12/26 09:51:03;;;;;;;;;1.75;1.75;;;;;;;;5099427;27;46377;-67
2022/12/26 09:53:37;;;;;;;;;1.75;0.00;;;;;;;;5098347;27;45340;-67
2022/12/26 09:56:05;;;;;;;;;1.00;0.00;;;;;;;;5097848;27;46330;-68
2022/12/26 09:58:32;;;;;;;;;0.00;0.00;;;;;;;;5098461;27;45592;-67
2022/12/26 10:01:06;;;;;;;;;0.00;0.00;;;;;;;;5099370;27;46521;-67
2022/12/26 10:03:36;;;;;;;;;3.00;1.25;;;;;;;;5099231;27;45435;-67
2022/12/26 10:06:12;;;;;;;;;2.00;0.00;;;;;;;;5098582;27;45390;-67
2022/12/26 10:08:56;;;;;;;;;3.00;0.00;;;;;;;;5099482;27;45396;-67
2022/12/26 10:11:40;;;;;;;;;0.00;0.00;;;;;;;;5099185;27;46230;-67
2022/12/26 10:14:14;;;;;;;;;1.40;0.60;;;;;;;;5098723;27;45413;-67
2022/12/26 10:17:02;;;;;;;;;2.00;1.00;;;;;;;;5090692;27;45831;-67
2022/12/26 10:19:36;;;;;;;;;0.25;0.00;;;;;;;;5103917;27;45456;-68
2022/12/26 10:22:07;;;;;;;;;6.00;3.75;;;;;;;;5112895;27;46695;-68
2022/12/26 10:24:34;;;;;;;;;0.75;0.75;;;;;;;;5119528;27;45270;-68
2022/12/26 10:27:02;;;;;;;;;5.00;1.00;;;;;;;;5105089;27;45828;-69
2022/12/26 10:29:32;;;;;;;;;2.00;2.00;;;;;;;;5099130;27;45382;-68
2022/12/26 10:31:57;;;;;;;;;1.75;1.75;;;;;;;;5098065;27;46761;-68
2022/12/26 10:34:27;;;;;;;;;1.75;1.75;;;;;;;;5115363;27;45754;-68
2022/12/26 10:37:10;;;;;;;;;1.75;1.00;;;;;;;;5113227;27;46539;-68
2022/12/26 10:39:42;;;;;;;;;6.00;1.00;;;;;;;;5077838;28;45424;-67
2022/12/26 10:42:21;;;;;;;;;16.25;10.75;;;;;;;;5078059;28;45488;-68
2022/12/26 10:44:46;;;;;;;;;11.75;7.00;;;;;;;;5081253;27;45484;-68
2022/12/26 10:47:14;;;;;;;;;1.25;1.25;;;;;;;;5098856;27;45721;-68
2022/12/26 10:49:42;;;;;;;;;2.00;2.00;;;;;;;;5099281;27;45284;-68
2022/12/26 10:52:09;;;;;;;;;3.00;1.00;;;;;;;;5097071;27;46722;-68
2022/12/26 10:54:34;;;;;;;;;5.00;3.00;;;;;;;;5104030;27;45213;-68
2022/12/26 10:57:00;;;;;;;;;5.75;1.75;;;;;;;;5097890;27;45421;-68
2022/12/26 10:59:34;;;;;;;;;4.00;2.25;;;;;;;;5098420;27;45318;-70
2022/12/26 11:02:10;;;;;;;;;5.50;4.00;;;;;;;;5097225;27;46629;-67
2022/12/26 11:04:35;;;;;;;;;6.25;6.25;;;;;;;;5095885;27;45449;-68
2022/12/26 11:07:07;;;;;;;;;3.75;1.50;;;;;;;;5096907;27;45513;-67
2022/12/26 11:09:40;;;;;;;;;2.50;0.00;;;;;;;;5096497;27;45609;-67
2022/12/26 11:12:05;;;;;;;;;4.00;2.00;;;;;;;;5084786;27;46372;-67
2022/12/26 11:14:36;;;;;;;;;2.25;2.00;;;;;;;;5096189;27;45356;-68
2022/12/26 11:17:04;;;;;;;;;5.00;4.00;;;;;;;;5096616;27;45413;-67
2022/12/26 11:19:31;;;;;;;;;2.50;1.00;;;;;;;;5096522;27;45404;-67
2022/12/26 11:22:19;;;;;;;;;2.00;1.00;;;;;;;;5095955;27;46245;-66
2022/12/26 11:24:44;;;;;;;;;1.50;0.75;;;;;;;;5097422;27;45377;-67
2022/12/26 11:27:16;;;;;;;;;3.75;2.75;;;;;;;;5093532;27;45476;-67
2022/12/26 11:29:41;;;;;;;;;2.25;1.75;;;;;;;;5091639;27;49265;-67
2022/12/26 11:32:15;;;;;;;;;3.75;1.00;;;;;;;;5097466;27;46649;-68
2022/12/26 11:34:46;;;;;;;;;1.00;1.00;;;;;;;;5094289;27;45479;-69
2022/12/26 11:37:23;;;;;;;;;3.00;1.00;;;;;;;;5096829;27;45543;-67
2022/12/26 11:39:50;;;;;;;;;1.00;1.00;;;;;;;;5095405;27;45377;-65
2022/12/26 11:42:18;;;;;;;;;3.25;1.50;;;;;;;;5094803;27;46508;-65
2022/12/26 11:44:45;;;;;;;;;1.00;1.00;;;;;;;;5097214;27;45469;-64
2022/12/26 11:47:12;;;;;;;;;4.75;3.25;;;;;;;;5097159;27;45441;-64
2022/12/26 11:49:46;;;;;;;;;3.50;2.00;;;;;;;;5100988;27;45486;-64
2022/12/26 11:52:32;;;;;;;;;3.50;3.50;;;;;;;;5117661;27;46328;-64
2022/12/26 11:54:58;;;;;;;;;5.00;3.00;;;;;;;;5110280;27;45487;-64
2022/12/26 11:57:27;;;;;;;;;2.00;2.00;;;;;;;;5097902;27;45384;-67
2022/12/26 11:59:52;;;;;;;;;4.75;4.75;;;;;;;;5097227;27;45388;-67
2022/12/26 12:02:18;;;;;;;;;4.00;3.00;;;;;;;;5096812;27;45620;-67
2022/12/26 12:04:44;;;;;;;;;3.00;2.00;;;;;;;;5096179;27;46752;-67
2022/12/26 12:07:28;;;;;;;;;2.00;2.00;;;;;;;;5096426;27;45456;-67
2022/12/26 12:10:07;;;;;;;;;7.25;7.25;;;;;;;;5096469;27;45448;-67
2022/12/26 12:12:34;;;;;;;;;6.25;3.00;;;;;;;;5096872;27;46548;-67
2022/12/26 12:15:02;;;;;;;;;8.50;4.50;;;;;;;;5091475;27;45431;-67
2022/12/26 12:17:28;;;;;;;;;11.25;8.00;;;;;;;;5093040;27;45456;-64
2022/12/26 12:20:11;;;;;;;;;14.75;11.25;;;;;;;;5094647;27;45426;-65
2022/12/26 12:22:45;;;;;;;;;4.00;4.00;;;;;;;;5095042;27;46381;-65
2022/12/26 12:25:22;;;;;;;;;4.80;1.00;;;;;;;;5095577;27;45358;-65
2022/12/26 12:27:58;;;;;;;;;2.75;2.75;;;;;;;;5094207;27;45579;-65
2022/12/26 12:30:27;;;;;;;;;9.50;6.00;;;;;;;;5096546;27;45480;-65
2022/12/26 12:33:02;;;;;;;;;7.75;5.50;;;;;;;;5097049;27;46808;-66
2022/12/26 12:35:30;;;;;;;;;8.50;4.75;;;;;;;;5096525;27;45521;-67
2022/12/26 12:38:14;;;;;;;;;1.50;1.50;;;;;;;;5096623;27;45423;-65
2022/12/26 12:40:50;;;;;;;;;3.50;2.75;;;;;;;;5096320;27;45430;-66
2022/12/26 12:43:19;;;;;;;;;3.50;1.25;;;;;;;;5096210;27;46126;-65
2022/12/26 12:46:03;;;;;;;;;3.50;1.50;;;;;;;;5095066;27;45214;-67
2022/12/26 12:48:31;;;;;;;;;1.00;1.00;;;;;;;;5097388;27;45461;-65
2022/12/26 12:51:08;;;;;;;;;0.00;0.00;;;;;;;;5096687;27;45552;-66
2022/12/26 12:53:36;;;;;;;;;1.00;0.00;;;;;;;;5095981;27;46271;-66
2022/12/26 12:56:04;;;;;;;;;5.25;1.00;;;;;;;;5096044;27;45397;-66
2022/12/26 12:58:36;;;;;;;;;0.00;0.00;;;;;;;;5096640;27;45231;-66
2022/12/26 13:01:06;;;;;;;;;1.50;0.00;;;;;;;;5096643;27;45345;-66
2022/12/26 13:03:39;;;;;;;;;2.50;1.25;;;;;;;;5098525;27;46545;-66
2022/12/26 13:06:10;;;;;;;;;5.00;2.00;;;;;;;;5100267;27;45447;-66
2022/12/26 13:08:49;;;;;;;;;8.00;7.00;;;;;;;;5099780;27;45496;-66
2022/12/26 13:11:26;;;;;;;;;4.25;4.00;;;;;;;;5098289;27;45276;-65
2022/12/26 13:13:55;;;;;;;;;2.25;2.25;;;;;;;;5099066;27;46240;-66
2022/12/26 13:16:29;;;;;;;;;1.80;1.00;;;;;;;;5099607;27;45491;-65
2022/12/26 13:18:59;;;;;;;;;1.50;1.00;;;;;;;;5098512;27;45480;-67
2022/12/26 13:21:25;;;;;;;;;5.00;3.00;;;;;;;;5098642;27;45383;-66
2022/12/26 13:24:24;;;;;;;;;4.75;4.25;;;;;;;;5099710;27;47363;-67
2022/12/26 13:26:56;;;;;;;;;3.50;2.00;;;;;;;;5099426;27;45469;-67
2022/12/26 13:29:40;;;;;;;;;5.50;4.00;;;;;;;;5099346;27;45458;-67
2022/12/26 13:32:22;;;;;;;;;3.75;2.00;;;;;;;;5099478;27;45495;-67
2022/12/26 13:34:48;;;;;;;;;0.50;0.50;;;;;;;;5099013;27;45367;-68
2022/12/26 13:37:33;;;;;;;;;2.25;1.75;;;;;;;;5098401;27;45607;-67
2022/12/26 13:39:59;;;;;;;;;2.00;1.50;;;;;;;;5099398;27;45540;-67
2022/12/26 13:45:32;;;;;;;;;6.25;6.25;;;;;;;;5098864;27;45826;-64
2022/12/26 13:48:00;;;;;;;;;3.50;3.25;;;;;;;;5098268;27;45395;-66
2022/12/26 13:50:44;;;;;;;;;2.00;1.00;;;;;;;;5098523;27;45413;-65
2022/12/26 13:53:26;;;;;;;;;3.50;2.75;;;;;;;;5097826;27;45549;-65
2022/12/26 13:55:55;;;;;;;;;5.75;5.00;;;;;;;;5098324;27;46481;-64
2022/12/26 13:58:31;;;;;;;;;2.75;1.75;;;;;;;;5099544;27;45741;-64
2022/12/26 14:01:07;;;;;;;;;2.75;2.75;;;;;;;;5098900;27;45363;-64
2022/12/26 14:03:44;;;;;;;;;3.75;2.75;;;;;;;;5099087;27;45473;-62
2022/12/26 14:06:09;;;;;;;;;5.00;2.00;;;;;;;;5098092;27;46364;-62
2022/12/26 14:08:55;;;;;;;;;4.25;3.00;;;;;;;;5097846;27;45406;-65
2022/12/26 14:11:20;;;;;;;;;4.50;3.25;;;;;;;;5098713;27;45544;-64
2022/12/26 14:13:48;;;;;;;;;1.00;1.00;;;;;;;;5095315;27;45486;-66
2022/12/26 14:16:29;;;;;;;;;2.00;2.00;;;;;;;;5098644;27;46812;-66
2022/12/26 14:19:09;;;;;;;;;0.00;0.00;;;;;;;;5098713;27;45389;-65
2022/12/26 14:21:44;;;;;;;;;4.75;3.75;;;;;;;;5098504;27;45536;-65
2022/12/26 14:24:13;;;;;;;;;1.00;1.00;;;;;;;;5098550;27;45392;-65
2022/12/26 14:26:38;;;;;;;;;9.75;4.00;;;;;;;;5097879;27;45431;-65
2022/12/26 14:29:36;;;;;;;;;0.50;0.50;;;;;;;;5097869;27;45503;-66
2022/12/26 14:32:20;;;;;;;;;3.00;2.00;;;;;;;;4995529;28;45454;-65
2022/12/26 14:34:52;;;;;;;;;3.75;2.00;;;;;;;;4994084;28;45513;-63
2022/12/26 14:37:22;;;;;;;;;2.00;2.00;;;;;;;;4994067;28;45450;-63
2022/12/26 14:40:13;;;;;;;;;43.00;36.33;;;;;;;;4994491;28;45485;-64
2022/12/26 14:43:10;;;;;;;;;3.25;2.75;;;;;;;;4992264;28;45796;-63
2022/12/26 14:45:36;;;;;;;;;0.00;0.00;;;;;;;;4994408;28;45581;-63
2022/12/26 14:48:02;;;;;;;;;1.75;1.50;;;;;;;;4989552;28;46214;-62
2022/12/26 14:50:30;;;;;;;;;7.00;2.00;;;;;;;;4993749;28;45775;-63
2022/12/26 14:53:15;;;;;;;;;1.50;1.50;;;;;;;;4993945;28;45485;-63
2022/12/26 14:56:10;;;;;;;;;3.25;3.00;;;;;;;;4994207;28;45751;-63
2022/12/26 14:58:36;;;;;;;;;4.00;2.00;;;;;;;;4966498;28;45519;-61
2022/12/26 15:01:19;;;;;;;;;2.75;2.75;;;;;;;;4988429;28;45513;-62
2022/12/26 15:03:50;;;;;;;;;2.00;1.75;;;;;;;;4975391;28;45582;-61
2022/12/26 15:06:15;;;;;;;;;12.75;9.00;;;;;;;;4991000;28;45327;-61
2022/12/26 15:08:52;;;;;;;;;2.75;2.75;;;;;;;;5089545;27;45635;-63
2022/12/26 15:11:18;;;;;;;;;2.00;2.00;;;;;;;;5096871;27;45459;-62
2022/12/26 15:14:02;;;;;;;;;2.00;2.00;;;;;;;;5097565;27;45426;-63
2022/12/26 15:16:44;;;;;;;;;6.25;4.00;;;;;;;;5097529;27;45445;-62
2022/12/26 15:19:18;;;;;;;;;5.50;4.75;;;;;;;;5097009;27;45395;-63
2022/12/26 15:21:53;;;;;;;;;6.75;5.75;;;;;;;;5097666;27;45495;-63
2022/12/26 15:24:24;;;;;;;;;4.50;3.00;;;;;;;;5096947;27;45450;-63
2022/12/26 15:27:08;;;;;;;;;8.25;6.00;;;;;;;;5096000;27;45414;-61
2022/12/26 15:29:39;;;;;;;;;1.50;1.50;;;;;;;;5096941;27;45538;-63
2022/12/26 15:32:22;;;;;;;;;3.00;3.00;;;;;;;;5097105;27;45702;-63
2022/12/26 15:34:50;;;;;;;;;3.75;2.50;;;;;;;;5097189;27;45331;-63
2022/12/26 15:37:15;;;;;;;;;41.67;32.67;;;;;;;;5097538;27;45481;-62
2022/12/26 15:39:46;;;;;;;;;47.00;38.67;;;;;;;;5095706;27;47399;-61
2022/12/26 15:42:22;;;;;;;;;58.33;44.00;;;;;;;;5096749;27;45387;-63
2022/12/26 15:45:17;;;;;;;;;26.67;25.33;;;;;;;;5097074;27;45451;-62
2022/12/26 15:48:00;;;;;;;;;48.00;36.33;;;;;;;;5034091;28;45681;-61
2022/12/26 15:50:46;;;;;;;;;34.33;33.67;;;;;;;;5033525;28;45412;-61
2022/12/26 15:53:16;;;;;;;;;79.25;57.50;;;;;;;;5033161;28;45448;-61
2022/12/26 15:56:02;;;;;;;;;41.67;34.00;;;;;;;;5032174;28;45489;-62
2022/12/26 15:59:00;;;;;;;;;23.00;18.33;;;;;;;;5033790;28;45865;-62
2022/12/26 16:01:44;;;;;;;;;24.33;13.00;;;;;;;;4940930;28;46334;-62
2022/12/26 16:04:20;;;;;;;;;22.33;14.67;;;;;;;;4934961;28;45476;-63
2022/12/26 16:06:48;;;;;;;;;12.50;10.25;;;;;;;;4935641;28;45668;-64
2022/12/26 16:09:26;;;;;;;;;12.50;10.50;;;;;;;;4935078;28;45569;-65
2022/12/26 16:11:53;;;;;;;;;23.00;17.67;;;;;;;;4934103;28;46230;-63
2022/12/26 16:14:24;;;;;;;;;18.00;13.33;;;;;;;;4937276;28;45987;-64
2022/12/26 16:16:49;;;;;;;;;14.25;9.75;;;;;;;;4937520;28;45534;-63
2022/12/26 16:19:15;;;;;;;;;16.33;13.00;;;;;;;;4934324;28;46590;-62
2022/12/26 16:24:27;;;;;;;;;8.00;6.00;;;;;;;;4967675;28;45614;-63
2022/12/26 16:26:54;;;;;;;;;5.00;4.50;;;;;;;;4999818;28;45472;-63
2022/12/26 16:29:19;;;;;;;;;6.50;5.25;;;;;;;;5004797;28;45507;-64
2022/12/26 16:31:45;;;;;;;;;7.00;5.25;;;;;;;;5004728;28;46323;-63
2022/12/26 16:34:16;;;;;;;;;8.00;8.00;;;;;;;;5002532;28;45830;-62
2022/12/26 16:36:41;;;;;;;;;9.33;6.67;;;;;;;;5031174;27;45719;-62
2022/12/26 16:39:10;;;;;;;;;8.75;6.00;;;;;;;;5099355;27;45569;-62
2022/12/26 16:41:50;;;;;;;;;10.33;8.33;;;;;;;;5099675;27;46361;-62
2022/12/26 16:44:28;;;;;;;;;8.67;8.00;;;;;;;;5095671;27;45908;-62
2022/12/26 16:46:53;;;;;;;;;13.50;7.50;;;;;;;;5094205;27;45914;-64
2022/12/26 16:49:20;;;;;;;;;4.50;4.50;;;;;;;;5096873;27;45524;-63
2022/12/26 16:51:48;;;;;;;;;9.00;6.25;;;;;;;;5097845;27;46821;-63
2022/12/26 16:54:19;;;;;;;;;10.00;8.25;;;;;;;;5098801;27;45459;-64
2022/12/26 16:56:52;;;;;;;;;10.75;4.75;;;;;;;;5099952;27;45545;-66
2022/12/26 16:59:19;;;;;;;;;28.67;27.00;;;;;;;;5099727;27;45934;-63
2022/12/26 17:01:48;;;;;;;;;13.33;9.00;;;;;;;;5099551;27;46212;-63
2022/12/26 17:04:13;;;;;;;;;11.67;9.67;;;;;;;;5105486;27;45440;-64
2022/12/26 17:06:44;;;;;;;;;11.00;11.00;;;;;;;;5098691;27;45324;-62